This is the latest recevied weather packets stored in our database for station/object YB2VNE-13. If no packets are shown the sender has not sent any weather packets the latest 1 day(s).
| Time | Temp. | Humidity | Pressure | Rain* | Wind** | Luminosity | Snow |
|---|---|---|---|---|---|---|---|
| 1778041669 | 29.44° C | 80% | 994 hPa | - | 0 m/s | 0 W/m² | - |
| 1778041359 | 30.56° C | 74% | 994 hPa | - | 0 m/s | 0 W/m² | - |
| 1778041049 | 29.44° C | 82% | 994 hPa | - | 0 m/s | 0 W/m² | - |
| 1778040739 | 29.44° C | 79% | 994 hPa | - | 0 m/s | 0 W/m² | - |
| 1778040429 | 29.44° C | 79% | 994 hPa | - | 0 m/s | 0 W/m² | - |
| 1778040119 | 29.44° C | 77% | 994 hPa | - | 0 m/s | 0 W/m² | - |
| 1778039809 | 29.44° C | 83% | 995 hPa | - | 0 m/s | 0 W/m² | - |
| 1778039499 | 29.44° C | 82% | 995 hPa | - | 0 m/s | 0 W/m² | - |
| 1778039189 | 29.44° C | 81% | 995 hPa | - | 0 m/s | 0 W/m² | - |
| 1778038879 | 29.44° C | 82% | 995 hPa | - | 0 m/s | 0 W/m² | - |
| 1778038569 | 28.89° C | 85% | 995 hPa | - | 0 m/s | 0 W/m² | - |
| 1778038259 | 28.89° C | 85% | 995 hPa | - | 0 m/s | 0 W/m² | - |
| 1778037949 | 28.89° C | 86% | 995 hPa | - | 0 m/s | 0 W/m² | - |
| 1778037639 | 28.89° C | 86% | 995 hPa | - | 0 m/s | 0 W/m² | - |
| 1778037329 | 29.44° C | 82% | 995 hPa | - | 0 m/s | 0 W/m² | - |
| 1778037019 | 29.44° C | 81% | 995 hPa | - | 0 m/s | 0 W/m² | - |
| 1778036709 | 28.89° C | 84% | 995 hPa | - | 0 m/s | 0 W/m² | - |
| 1778036399 | 28.89° C | 87% | 995 hPa | - | 0 m/s | 0 W/m² | - |
| 1778036089 | 28.89° C | 92% | 996 hPa | - | 0 m/s | 0 W/m² | - |
| 1778035780 | 28.89° C | 89% | 996 hPa | - | 0 m/s | 0 W/m² | - |
| 1778035469 | 28.89° C | 89% | 996 hPa | - | 0 m/s | 0 W/m² | - |
| 1778035159 | 28.89° C | 90% | 996 hPa | - | 0 m/s | 0 W/m² | - |
| 1778034849 | 28.33° C | 93% | 996 hPa | - | 0 m/s | 0 W/m² | - |
| 1778034539 | 28.33° C | 93% | 996 hPa | - | 0 m/s | 0 W/m² | - |
| 1778034229 | 28.89° C | 92% | 996 hPa | - | 0 m/s | 0 W/m² | - |
* Rain since midnight (hover to see other rain measurements)
** Current wind speed in m/s (hover to see current wind gust speed)